Ciudad Juárez, México

9:19 PM MST en Marzo 03, 2015 (GMT -0700)
Vista del Sol | Change Station
CLOSE
Current Station
Estación meteorológica personal
Location: El Paso, TX
Altura: 4010 ft
Estaciones meteorológicas cercanas

Alt 4010 ft 31.76 °N, 106.34 °W | Updated 1 minute ago

Overcast
Nublado
54.1 ° F
Sensación térmica 54.1 ° F
N
2.0
Viento Variable Viento desde ESE
Gusts 5.0 mph

Hoy
Alta -- | Baja -- ° F
--% Posibilidad de precipitaciones
Ayer
Alta -- | Baja -- ° F
Precip. -- pul
6:30 AM 6:05 PM
Gibosa creciente, 98% visible
Presión 29.75 pul
Visibilidad 10.0 Millas
Nubes Baja 5000 ft
Nubes dispersas 10000 ft
Nublado 15000 ft
Punto de rocío 48 ° F
Humedad 80%
Precipitaciones 0.04 pul
Espesor de la nieve No disponible.
UV 0 de una escala de 12
Polen No disponible.
Calidad del aire No disponible.
Flu Activity No disponible.
METAR KELP 040351Z 18010KT 10SM FEW050 SCT100 OVC150 12/07 A2986 RMK AO2 RAE12 SLP074 P0000 T01220072

More Conditions Fewer Conditions

Presión 29.75 pul
Visibilidad 10.0 Millas
Nubes Baja 5000 ft
Nubes dispersas 10000 ft
Nublado 15000 ft
Punto de rocío 48 ° F
Humedad 80%
Precipitaciones 0.04 pul
Espesor de la nieve No disponible.
UV 0 de una escala de 12
Polen No disponible.
Calidad del aire No disponible.
Flu Activity No disponible.
METAR KELP 040351Z 18010KT 10SM FEW050 SCT100 OVC150 12/07 A2986 RMK AO2 RAE12 SLP074 P0000 T01220072

More Conditions Fewer Conditions

10-Day Weather Forecast

Almanac

Astronomía

Mar. 03, 2015 Salida Puesta
Hora real
Crepúsculo civil
Crepúsculo náutico
Crepúsculo astronómico
Luna
Horas de luz
Horas de luz
Tomorrow will be .
, % of the Moon is Illuminated

Extremos de hoy

Máximos del país Bajas del país

Community

WunderPhotos

Upload Photos

1,802,383 ¡fotos cargadas!

WunderBlogs® & News

Nearby

Calidad del aire

  Calidad del aire Índice AQ Contaminante
Not available.

Grosos de nieve

Estación Profundido Altura

Actividad de terremotos

Ciudad Distance Mag. Tiempo y dato
Magnitud mínima muestra es 2,5.

Temperaturas de aguas costeras

Lugar Temperatura

Estaciones meteorológicas cercanas